sensor_id;sensor_type;location;lat;lon;timestamp;P1;durP1;ratioP1;P2;durP2;ratioP2
42662;SDS011;44330;51.360;6.686;2023-08-07T00:00:23;10.07;;;2.53;;
42662;SDS011;44330;51.360;6.686;2023-08-07T00:02:48;11.88;;;2.22;;
42662;SDS011;44330;51.360;6.686;2023-08-07T00:05:14;8.43;;;1.80;;
42662;SDS011;44330;51.360;6.686;2023-08-07T00:07:41;8.48;;;2.10;;
42662;SDS011;44330;51.360;6.686;2023-08-07T00:10:08;9.77;;;2.35;;
42662;SDS011;44330;51.360;6.686;2023-08-07T00:12:33;6.30;;;1.65;;
42662;SDS011;44330;51.360;6.686;2023-08-07T00:14:59;8.27;;;1.63;;
42662;SDS011;44330;51.360;6.686;2023-08-07T00:17:25;8.73;;;2.60;;
42662;SDS011;44330;51.360;6.686;2023-08-07T00:19:51;10.45;;;2.28;;
42662;SDS011;44330;51.360;6.686;2023-08-07T00:22:17;8.48;;;2.15;;
42662;SDS011;44330;51.360;6.686;2023-08-07T00:24:42;14.50;;;2.90;;
42662;SDS011;44330;51.360;6.686;2023-08-07T00:27:08;7.38;;;2.03;;
42662;SDS011;44330;51.360;6.686;2023-08-07T00:29:35;10.30;;;2.80;;
42662;SDS011;44330;51.360;6.686;2023-08-07T00:32:01;9.80;;;2.25;;
42662;SDS011;44330;51.360;6.686;2023-08-07T00:34:27;11.73;;;2.22;;
42662;SDS011;44330;51.360;6.686;2023-08-07T00:36:53;6.05;;;1.63;;
42662;SDS011;44330;51.360;6.686;2023-08-07T00:39:19;13.25;;;2.75;;
42662;SDS011;44330;51.360;6.686;2023-08-07T00:41:44;10.60;;;2.25;;
42662;SDS011;44330;51.360;6.686;2023-08-07T00:44:10;9.93;;;2.38;;
42662;SDS011;44330;51.360;6.686;2023-08-07T00:46:35;12.90;;;2.30;;
42662;SDS011;44330;51.360;6.686;2023-08-07T00:49:04;14.65;;;1.95;;
42662;SDS011;44330;51.360;6.686;2023-08-07T00:51:30;13.30;;;2.35;;
42662;SDS011;44330;51.360;6.686;2023-08-07T00:53:56;6.88;;;1.88;;
42662;SDS011;44330;51.360;6.686;2023-08-07T00:56:22;9.48;;;2.25;;
42662;SDS011;44330;51.360;6.686;2023-08-07T00:58:49;13.05;;;2.10;;
42662;SDS011;44330;51.360;6.686;2023-08-07T01:01:15;8.10;;;2.45;;
42662;SDS011;44330;51.360;6.686;2023-08-07T01:03:41;10.60;;;1.98;;
42662;SDS011;44330;51.360;6.686;2023-08-07T01:06:06;12.30;;;2.30;;
42662;SDS011;44330;51.360;6.686;2023-08-07T01:08:32;11.57;;;1.98;;
42662;SDS011;44330;51.360;6.686;2023-08-07T01:19:22;7.25;;;2.17;;
42662;SDS011;44330;51.360;6.686;2023-08-07T01:21:50;12.10;;;2.28;;
42662;SDS011;44330;51.360;6.686;2023-08-07T01:24:28;9.90;;;2.47;;
42662;SDS011;44330;51.360;6.686;2023-08-07T01:26:53;11.40;;;2.03;;
42662;SDS011;44330;51.360;6.686;2023-08-07T01:29:27;14.75;;;2.72;;
42662;SDS011;44330;51.360;6.686;2023-08-07T01:32:00;15.25;;;2.17;;
42662;SDS011;44330;51.360;6.686;2023-08-07T01:34:30;11.35;;;2.80;;
42662;SDS011;44330;51.360;6.686;2023-08-07T01:36:58;9.90;;;2.00;;
42662;SDS011;44330;51.360;6.686;2023-08-07T01:39:25;16.65;;;3.00;;
42662;SDS011;44330;51.360;6.686;2023-08-07T01:41:51;10.90;;;3.08;;
42662;SDS011;44330;51.360;6.686;2023-08-07T01:44:17;13.18;;;2.40;;
42662;SDS011;44330;51.360;6.686;2023-08-07T01:46:42;12.43;;;2.65;;
42662;SDS011;44330;51.360;6.686;2023-08-07T01:49:08;9.73;;;2.08;;
42662;SDS011;44330;51.360;6.686;2023-08-07T01:51:33;13.73;;;2.25;;
42662;SDS011;44330;51.360;6.686;2023-08-07T01:54:00;8.73;;;2.20;;
42662;SDS011;44330;51.360;6.686;2023-08-07T01:56:26;9.57;;;2.85;;
42662;SDS011;44330;51.360;6.686;2023-08-07T01:58:51;15.27;;;3.72;;
42662;SDS011;44330;51.360;6.686;2023-08-07T02:01:17;12.27;;;2.85;;
42662;SDS011;44330;51.360;6.686;2023-08-07T02:03:42;11.27;;;2.40;;
42662;SDS011;44330;51.360;6.686;2023-08-07T02:06:08;14.27;;;3.33;;
42662;SDS011;44330;51.360;6.686;2023-08-07T02:08:33;13.02;;;2.38;;
42662;SDS011;44330;51.360;6.686;2023-08-07T02:10:59;15.98;;;3.00;;
42662;SDS011;44330;51.360;6.686;2023-08-07T02:13:26;11.25;;;2.80;;
42662;SDS011;44330;51.360;6.686;2023-08-07T02:15:52;8.57;;;2.95;;
42662;SDS011;44330;51.360;6.686;2023-08-07T02:18:17;8.93;;;2.42;;
42662;SDS011;44330;51.360;6.686;2023-08-07T02:20:43;11.82;;;2.67;;
42662;SDS011;44330;51.360;6.686;2023-08-07T02:23:08;11.23;;;2.38;;
42662;SDS011;44330;51.360;6.686;2023-08-07T02:25:34;7.18;;;2.30;;
42662;SDS011;44330;51.360;6.686;2023-08-07T02:28:00;14.40;;;2.40;;
42662;SDS011;44330;51.360;6.686;2023-08-07T02:30:25;11.70;;;2.42;;
42662;SDS011;44330;51.360;6.686;2023-08-07T02:32:51;17.48;;;3.15;;
42662;SDS011;44330;51.360;6.686;2023-08-07T02:35:16;12.43;;;3.00;;
42662;SDS011;44330;51.360;6.686;2023-08-07T02:37:42;8.65;;;2.50;;
42662;SDS011;44330;51.360;6.686;2023-08-07T02:40:08;13.38;;;2.65;;
42662;SDS011;44330;51.360;6.686;2023-08-07T02:42:34;18.00;;;3.88;;
42662;SDS011;44330;51.360;6.686;2023-08-07T02:44:59;14.48;;;2.50;;
42662;SDS011;44330;51.360;6.686;2023-08-07T02:47:25;15.13;;;3.05;;
42662;SDS011;44330;51.360;6.686;2023-08-07T02:49:50;10.52;;;2.35;;
42662;SDS011;44330;51.360;6.686;2023-08-07T02:52:16;9.98;;;2.72;;
42662;SDS011;44330;51.360;6.686;2023-08-07T02:54:41;14.13;;;2.67;;
42662;SDS011;44330;51.360;6.686;2023-08-07T02:57:07;13.50;;;3.20;;
42662;SDS011;44330;51.360;6.686;2023-08-07T02:59:32;17.42;;;2.85;;
42662;SDS011;44330;51.360;6.686;2023-08-07T03:01:58;17.33;;;2.95;;
42662;SDS011;44330;51.360;6.686;2023-08-07T03:04:23;20.42;;;3.05;;
42662;SDS011;44330;51.360;6.686;2023-08-07T03:06:49;15.25;;;2.45;;
42662;SDS011;44330;51.360;6.686;2023-08-07T03:09:14;13.60;;;3.33;;
42662;SDS011;44330;51.360;6.686;2023-08-07T03:11:40;12.60;;;2.63;;
42662;SDS011;44330;51.360;6.686;2023-08-07T03:14:06;15.25;;;3.08;;
42662;SDS011;44330;51.360;6.686;2023-08-07T03:16:31;12.07;;;2.75;;
42662;SDS011;44330;51.360;6.686;2023-08-07T03:18:57;15.50;;;3.17;;
42662;SDS011;44330;51.360;6.686;2023-08-07T03:21:24;15.95;;;3.25;;
42662;SDS011;44330;51.360;6.686;2023-08-07T03:23:50;18.02;;;3.25;;
42662;SDS011;44330;51.360;6.686;2023-08-07T03:26:16;14.57;;;4.65;;
42662;SDS011;44330;51.360;6.686;2023-08-07T03:28:41;15.75;;;4.15;;
42662;SDS011;44330;51.360;6.686;2023-08-07T03:31:07;10.27;;;2.92;;
42662;SDS011;44330;51.360;6.686;2023-08-07T03:33:32;12.40;;;3.20;;
42662;SDS011;44330;51.360;6.686;2023-08-07T03:35:58;19.33;;;3.45;;
42662;SDS011;44330;51.360;6.686;2023-08-07T03:38:23;14.07;;;3.45;;
42662;SDS011;44330;51.360;6.686;2023-08-07T03:40:49;15.77;;;2.95;;
42662;SDS011;44330;51.360;6.686;2023-08-07T03:43:15;17.38;;;3.63;;
42662;SDS011;44330;51.360;6.686;2023-08-07T03:45:40;14.02;;;3.03;;
42662;SDS011;44330;51.360;6.686;2023-08-07T03:48:06;10.95;;;2.60;;
42662;SDS011;44330;51.360;6.686;2023-08-07T03:50:31;13.73;;;2.83;;
42662;SDS011;44330;51.360;6.686;2023-08-07T03:53:00;17.03;;;2.67;;
42662;SDS011;44330;51.360;6.686;2023-08-07T03:55:26;11.93;;;3.15;;
42662;SDS011;44330;51.360;6.686;2023-08-07T03:57:52;15.98;;;3.08;;
42662;SDS011;44330;51.360;6.686;2023-08-07T04:00:17;13.15;;;2.47;;
42662;SDS011;44330;51.360;6.686;2023-08-07T04:02:43;11.70;;;2.88;;
42662;SDS011;44330;51.360;6.686;2023-08-07T04:05:09;13.85;;;2.60;;
42662;SDS011;44330;51.360;6.686;2023-08-07T04:07:35;13.52;;;3.08;;
42662;SDS011;44330;51.360;6.686;2023-08-07T04:10:01;10.93;;;3.10;;
42662;SDS011;44330;51.360;6.686;2023-08-07T04:12:27;14.60;;;2.90;;
42662;SDS011;44330;51.360;6.686;2023-08-07T04:14:52;11.40;;;2.85;;
42662;SDS011;44330;51.360;6.686;2023-08-07T04:17:19;15.88;;;3.05;;
42662;SDS011;44330;51.360;6.686;2023-08-07T04:19:45;20.63;;;2.97;;
42662;SDS011;44330;51.360;6.686;2023-08-07T04:22:11;13.60;;;3.28;;
42662;SDS011;44330;51.360;6.686;2023-08-07T04:24:36;13.55;;;3.58;;
42662;SDS011;44330;51.360;6.686;2023-08-07T04:27:02;16.60;;;3.60;;
42662;SDS011;44330;51.360;6.686;2023-08-07T04:29:28;12.18;;;3.47;;
42662;SDS011;44330;51.360;6.686;2023-08-07T04:31:53;14.57;;;3.25;;
42662;SDS011;44330;51.360;6.686;2023-08-07T04:34:19;12.50;;;3.20;;
42662;SDS011;44330;51.360;6.686;2023-08-07T04:36:44;12.85;;;3.13;;
42662;SDS011;44330;51.360;6.686;2023-08-07T04:39:10;13.80;;;2.85;;
42662;SDS011;44330;51.360;6.686;2023-08-07T04:41:38;10.85;;;4.03;;
42662;SDS011;44330;51.360;6.686;2023-08-07T04:44:04;11.98;;;3.03;;
42662;SDS011;44330;51.360;6.686;2023-08-07T04:46:30;13.70;;;3.70;;
42662;SDS011;44330;51.360;6.686;2023-08-07T04:48:55;10.40;;;3.05;;
42662;SDS011;44330;51.360;6.686;2023-08-07T04:51:21;12.38;;;3.00;;
42662;SDS011;44330;51.360;6.686;2023-08-07T04:53:47;14.25;;;3.45;;
42662;SDS011;44330;51.360;6.686;2023-08-07T04:56:15;14.90;;;3.78;;
42662;SDS011;44330;51.360;6.686;2023-08-07T04:58:41;10.38;;;2.90;;
42662;SDS011;44330;51.360;6.686;2023-08-07T05:01:07;12.15;;;3.00;;
42662;SDS011;44330;51.360;6.686;2023-08-07T05:03:33;12.65;;;3.70;;
42662;SDS011;44330;51.360;6.686;2023-08-07T05:06:02;15.90;;;3.63;;
42662;SDS011;44330;51.360;6.686;2023-08-07T05:08:28;14.98;;;3.58;;
42662;SDS011;44330;51.360;6.686;2023-08-07T05:10:53;10.68;;;3.13;;
42662;SDS011;44330;51.360;6.686;2023-08-07T05:13:19;15.63;;;2.88;;
42662;SDS011;44330;51.360;6.686;2023-08-07T05:15:46;14.43;;;4.25;;
42662;SDS011;44330;51.360;6.686;2023-08-07T05:18:13;16.77;;;3.72;;
42662;SDS011;44330;51.360;6.686;2023-08-07T05:20:38;14.05;;;4.13;;
42662;SDS011;44330;51.360;6.686;2023-08-07T05:23:04;19.02;;;3.97;;
42662;SDS011;44330;51.360;6.686;2023-08-07T05:25:30;16.95;;;4.15;;
42662;SDS011;44330;51.360;6.686;2023-08-07T05:27:55;17.92;;;3.75;;
42662;SDS011;44330;51.360;6.686;2023-08-07T05:30:21;20.88;;;4.32;;
42662;SDS011;44330;51.360;6.686;2023-08-07T05:32:47;13.75;;;4.07;;
42662;SDS011;44330;51.360;6.686;2023-08-07T05:35:12;15.52;;;4.03;;
42662;SDS011;44330;51.360;6.686;2023-08-07T05:37:38;17.58;;;4.70;;
42662;SDS011;44330;51.360;6.686;2023-08-07T05:40:04;15.55;;;5.15;;
42662;SDS011;44330;51.360;6.686;2023-08-07T05:42:31;23.70;;;4.75;;
42662;SDS011;44330;51.360;6.686;2023-08-07T05:44:57;11.98;;;3.88;;
42662;SDS011;44330;51.360;6.686;2023-08-07T05:47:23;12.57;;;4.00;;
42662;SDS011;44330;51.360;6.686;2023-08-07T05:49:49;17.33;;;4.10;;
42662;SDS011;44330;51.360;6.686;2023-08-07T05:52:15;21.45;;;4.95;;
42662;SDS011;44330;51.360;6.686;2023-08-07T05:54:42;15.98;;;4.30;;
42662;SDS011;44330;51.360;6.686;2023-08-07T05:57:07;19.75;;;5.15;;
42662;SDS011;44330;51.360;6.686;2023-08-07T05:59:33;15.85;;;3.70;;
42662;SDS011;44330;51.360;6.686;2023-08-07T06:01:59;22.83;;;5.30;;
42662;SDS011;44330;51.360;6.686;2023-08-07T06:04:25;14.55;;;4.90;;
42662;SDS011;44330;51.360;6.686;2023-08-07T06:06:50;17.80;;;4.63;;
42662;SDS011;44330;51.360;6.686;2023-08-07T06:09:16;17.48;;;4.50;;
42662;SDS011;44330;51.360;6.686;2023-08-07T06:11:42;11.75;;;4.40;;
42662;SDS011;44330;51.360;6.686;2023-08-07T06:14:08;12.68;;;4.40;;
42662;SDS011;44330;51.360;6.686;2023-08-07T06:16:33;16.25;;;4.55;;
42662;SDS011;44330;51.360;6.686;2023-08-07T06:18:59;15.43;;;4.32;;
42662;SDS011;44330;51.360;6.686;2023-08-07T06:21:24;14.35;;;4.57;;
42662;SDS011;44330;51.360;6.686;2023-08-07T06:23:50;15.15;;;4.90;;
42662;SDS011;44330;51.360;6.686;2023-08-07T06:26:16;11.02;;;4.25;;
42662;SDS011;44330;51.360;6.686;2023-08-07T06:28:42;14.65;;;3.78;;
42662;SDS011;44330;51.360;6.686;2023-08-07T06:31:08;12.27;;;3.65;;
42662;SDS011;44330;51.360;6.686;2023-08-07T06:33:36;13.52;;;3.38;;
42662;SDS011;44330;51.360;6.686;2023-08-07T06:36:03;11.40;;;3.90;;
42662;SDS011;44330;51.360;6.686;2023-08-07T06:38:29;12.90;;;4.40;;
42662;SDS011;44330;51.360;6.686;2023-08-07T06:40:55;10.07;;;3.60;;
42662;SDS011;44330;51.360;6.686;2023-08-07T06:43:21;12.80;;;4.50;;
42662;SDS011;44330;51.360;6.686;2023-08-07T06:45:49;11.40;;;4.60;;
42662;SDS011;44330;51.360;6.686;2023-08-07T06:48:15;11.65;;;3.40;;
42662;SDS011;44330;51.360;6.686;2023-08-07T06:50:41;10.57;;;3.35;;
42662;SDS011;44330;51.360;6.686;2023-08-07T06:53:06;20.90;;;4.00;;
42662;SDS011;44330;51.360;6.686;2023-08-07T06:55:32;17.08;;;4.00;;
42662;SDS011;44330;51.360;6.686;2023-08-07T06:57:58;13.77;;;3.75;;
42662;SDS011;44330;51.360;6.686;2023-08-07T07:00:24;13.65;;;4.03;;
42662;SDS011;44330;51.360;6.686;2023-08-07T07:02:50;10.68;;;3.33;;
42662;SDS011;44330;51.360;6.686;2023-08-07T07:05:15;12.52;;;3.80;;
42662;SDS011;44330;51.360;6.686;2023-08-07T07:07:41;21.15;;;4.03;;
42662;SDS011;44330;51.360;6.686;2023-08-07T07:10:07;11.55;;;3.72;;
42662;SDS011;44330;51.360;6.686;2023-08-07T07:12:32;11.27;;;3.15;;
42662;SDS011;44330;51.360;6.686;2023-08-07T07:14:58;7.40;;;2.75;;
42662;SDS011;44330;51.360;6.686;2023-08-07T07:17:24;10.25;;;3.03;;
42662;SDS011;44330;51.360;6.686;2023-08-07T07:19:49;20.15;;;3.70;;
42662;SDS011;44330;51.360;6.686;2023-08-07T07:22:15;10.38;;;2.85;;
42662;SDS011;44330;51.360;6.686;2023-08-07T07:24:40;12.05;;;3.40;;
42662;SDS011;44330;51.360;6.686;2023-08-07T07:27:06;11.55;;;3.88;;
42662;SDS011;44330;51.360;6.686;2023-08-07T07:29:32;9.55;;;3.50;;
42662;SDS011;44330;51.360;6.686;2023-08-07T07:31:57;13.50;;;3.83;;
42662;SDS011;44330;51.360;6.686;2023-08-07T07:34:23;12.63;;;3.53;;
42662;SDS011;44330;51.360;6.686;2023-08-07T07:36:48;18.90;;;4.15;;
42662;SDS011;44330;51.360;6.686;2023-08-07T07:39:14;15.95;;;3.92;;
42662;SDS011;44330;51.360;6.686;2023-08-07T07:41:39;14.48;;;3.92;;
42662;SDS011;44330;51.360;6.686;2023-08-07T07:44:05;13.20;;;3.30;;
42662;SDS011;44330;51.360;6.686;2023-08-07T07:46:30;19.17;;;3.72;;
42662;SDS011;44330;51.360;6.686;2023-08-07T07:48:57;18.00;;;3.90;;
42662;SDS011;44330;51.360;6.686;2023-08-07T07:51:23;11.30;;;4.25;;
42662;SDS011;44330;51.360;6.686;2023-08-07T07:53:49;17.05;;;3.95;;
42662;SDS011;44330;51.360;6.686;2023-08-07T07:56:15;11.73;;;3.83;;
42662;SDS011;44330;51.360;6.686;2023-08-07T07:58:40;8.55;;;3.65;;
42662;SDS011;44330;51.360;6.686;2023-08-07T08:01:06;12.05;;;3.88;;
42662;SDS011;44330;51.360;6.686;2023-08-07T08:03:32;14.80;;;3.97;;
42662;SDS011;44330;51.360;6.686;2023-08-07T08:05:58;13.50;;;3.60;;
42662;SDS011;44330;51.360;6.686;2023-08-07T08:08:24;12.23;;;3.65;;
42662;SDS011;44330;51.360;6.686;2023-08-07T08:10:50;13.18;;;3.72;;
42662;SDS011;44330;51.360;6.686;2023-08-07T08:13:17;9.60;;;2.30;;
42662;SDS011;44330;51.360;6.686;2023-08-07T08:15:43;10.30;;;2.58;;
42662;SDS011;44330;51.360;6.686;2023-08-07T08:18:10;10.10;;;2.30;;
42662;SDS011;44330;51.360;6.686;2023-08-07T08:20:36;10.23;;;2.60;;
42662;SDS011;44330;51.360;6.686;2023-08-07T08:23:02;7.75;;;2.33;;
42662;SDS011;44330;51.360;6.686;2023-08-07T08:25:28;6.88;;;2.78;;
42662;SDS011;44330;51.360;6.686;2023-08-07T08:27:53;10.52;;;2.70;;
42662;SDS011;44330;51.360;6.686;2023-08-07T08:30:19;7.68;;;2.30;;
42662;SDS011;44330;51.360;6.686;2023-08-07T08:32:45;8.15;;;3.28;;
42662;SDS011;44330;51.360;6.686;2023-08-07T08:35:11;8.85;;;3.15;;
42662;SDS011;44330;51.360;6.686;2023-08-07T08:37:36;14.35;;;3.00;;
42662;SDS011;44330;51.360;6.686;2023-08-07T08:40:02;6.78;;;2.47;;
42662;SDS011;44330;51.360;6.686;2023-08-07T08:42:28;6.65;;;2.58;;
42662;SDS011;44330;51.360;6.686;2023-08-07T08:44:56;10.77;;;2.72;;
42662;SDS011;44330;51.360;6.686;2023-08-07T08:47:25;7.20;;;2.42;;
42662;SDS011;44330;51.360;6.686;2023-08-07T08:50:00;12.27;;;2.80;;
42662;SDS011;44330;51.360;6.686;2023-08-07T08:52:28;5.55;;;2.20;;
42662;SDS011;44330;51.360;6.686;2023-08-07T08:54:56;14.55;;;3.08;;
42662;SDS011;44330;51.360;6.686;2023-08-07T08:57:22;7.80;;;2.35;;
42662;SDS011;44330;51.360;6.686;2023-08-07T08:59:52;9.65;;;2.45;;
42662;SDS011;44330;51.360;6.686;2023-08-07T09:02:18;7.43;;;2.42;;
42662;SDS011;44330;51.360;6.686;2023-08-07T09:04:44;6.28;;;2.60;;
42662;SDS011;44330;51.360;6.686;2023-08-07T09:07:10;10.48;;;3.67;;
42662;SDS011;44330;51.360;6.686;2023-08-07T09:12:06;8.85;;;2.58;;
42662;SDS011;44330;51.360;6.686;2023-08-07T09:14:41;11.50;;;3.08;;
42662;SDS011;44330;51.360;6.686;2023-08-07T09:17:08;10.25;;;3.00;;
42662;SDS011;44330;51.360;6.686;2023-08-07T09:19:35;10.32;;;2.80;;
42662;SDS011;44330;51.360;6.686;2023-08-07T09:22:00;12.23;;;3.00;;
42662;SDS011;44330;51.360;6.686;2023-08-07T09:24:26;12.23;;;2.80;;
42662;SDS011;44330;51.360;6.686;2023-08-07T09:26:51;10.85;;;2.63;;
42662;SDS011;44330;51.360;6.686;2023-08-07T09:29:20;8.35;;;2.45;;
42662;SDS011;44330;51.360;6.686;2023-08-07T09:31:47;18.15;;;2.97;;
42662;SDS011;44330;51.360;6.686;2023-08-07T09:34:12;8.85;;;2.58;;
42662;SDS011;44330;51.360;6.686;2023-08-07T09:36:41;10.75;;;3.90;;
42662;SDS011;44330;51.360;6.686;2023-08-07T09:39:07;7.43;;;2.70;;
42662;SDS011;44330;51.360;6.686;2023-08-07T09:41:32;11.57;;;3.70;;
42662;SDS011;44330;51.360;6.686;2023-08-07T09:44:00;12.70;;;3.58;;
42662;SDS011;44330;51.360;6.686;2023-08-07T09:46:42;9.90;;;3.45;;
42662;SDS011;44330;51.360;6.686;2023-08-07T09:49:09;18.27;;;4.38;;
42662;SDS011;44330;51.360;6.686;2023-08-07T09:51:41;14.85;;;3.38;;
42662;SDS011;44330;51.360;6.686;2023-08-07T09:54:11;8.48;;;3.38;;
42662;SDS011;44330;51.360;6.686;2023-08-07T09:56:38;10.43;;;3.13;;
42662;SDS011;44330;51.360;6.686;2023-08-07T09:59:05;15.10;;;3.80;;
42662;SDS011;44330;51.360;6.686;2023-08-07T10:01:31;20.92;;;3.97;;
42662;SDS011;44330;51.360;6.686;2023-08-07T10:03:57;10.70;;;2.85;;
42662;SDS011;44330;51.360;6.686;2023-08-07T10:06:23;9.80;;;2.58;;
42662;SDS011;44330;51.360;6.686;2023-08-07T10:08:49;13.20;;;3.17;;
42662;SDS011;44330;51.360;6.686;2023-08-07T10:11:16;14.15;;;3.10;;
42662;SDS011;44330;51.360;6.686;2023-08-07T10:13:42;13.55;;;2.88;;
42662;SDS011;44330;51.360;6.686;2023-08-07T10:16:08;12.52;;;2.60;;
42662;SDS011;44330;51.360;6.686;2023-08-07T10:18:34;8.93;;;2.40;;
42662;SDS011;44330;51.360;6.686;2023-08-07T10:21:01;8.38;;;2.15;;
42662;SDS011;44330;51.360;6.686;2023-08-07T10:23:28;12.77;;;3.03;;
42662;SDS011;44330;51.360;6.686;2023-08-07T10:25:56;13.40;;;2.47;;
42662;SDS011;44330;51.360;6.686;2023-08-07T10:28:23;8.40;;;2.40;;
42662;SDS011;44330;51.360;6.686;2023-08-07T10:30:50;10.68;;;2.42;;
42662;SDS011;44330;51.360;6.686;2023-08-07T10:33:17;10.38;;;2.50;;
42662;SDS011;44330;51.360;6.686;2023-08-07T10:35:45;14.93;;;2.55;;
42662;SDS011;44330;51.360;6.686;2023-08-07T10:38:13;10.83;;;2.03;;
42662;SDS011;44330;51.360;6.686;2023-08-07T10:43:23;10.88;;;2.58;;
42662;SDS011;44330;51.360;6.686;2023-08-07T10:45:50;9.32;;;1.70;;
42662;SDS011;44330;51.360;6.686;2023-08-07T10:48:19;7.93;;;1.90;;
42662;SDS011;44330;51.360;6.686;2023-08-07T10:51:07;9.63;;;2.42;;
42662;SDS011;44330;51.360;6.686;2023-08-07T10:53:36;7.55;;;2.00;;
42662;SDS011;44330;51.360;6.686;2023-08-07T10:56:15;12.15;;;2.45;;
42662;SDS011;44330;51.360;6.686;2023-08-07T10:59:03;9.00;;;2.20;;
42662;SDS011;44330;51.360;6.686;2023-08-07T11:04:06;8.35;;;1.90;;
42662;SDS011;44330;51.360;6.686;2023-08-07T11:06:35;6.53;;;2.05;;
42662;SDS011;44330;51.360;6.686;2023-08-07T11:09:04;8.93;;;2.38;;
42662;SDS011;44330;51.360;6.686;2023-08-07T11:14:13;8.73;;;2.23;;
42662;SDS011;44330;51.360;6.686;2023-08-07T11:16:40;7.93;;;2.13;;
42662;SDS011;44330;51.360;6.686;2023-08-07T11:19:06;7.68;;;2.13;;
42662;SDS011;44330;51.360;6.686;2023-08-07T11:21:33;10.98;;;2.55;;
42662;SDS011;44330;51.360;6.686;2023-08-07T11:24:00;7.82;;;1.95;;
42662;SDS011;44330;51.360;6.686;2023-08-07T11:26:26;10.60;;;2.00;;
42662;SDS011;44330;51.360;6.686;2023-08-07T11:28:53;8.18;;;1.90;;
42662;SDS011;44330;51.360;6.686;2023-08-07T11:31:19;5.53;;;1.80;;
42662;SDS011;44330;51.360;6.686;2023-08-07T11:33:51;9.52;;;1.73;;
42662;SDS011;44330;51.360;6.686;2023-08-07T11:36:19;7.40;;;1.80;;
42662;SDS011;44330;51.360;6.686;2023-08-07T11:38:45;11.43;;;2.22;;
42662;SDS011;44330;51.360;6.686;2023-08-07T11:41:12;7.25;;;1.92;;
42662;SDS011;44330;51.360;6.686;2023-08-07T11:43:41;5.88;;;1.50;;
42662;SDS011;44330;51.360;6.686;2023-08-07T11:46:08;10.70;;;1.92;;
42662;SDS011;44330;51.360;6.686;2023-08-07T11:48:36;5.88;;;1.45;;
42662;SDS011;44330;51.360;6.686;2023-08-07T11:51:03;7.53;;;1.90;;
42662;SDS011;44330;51.360;6.686;2023-08-07T11:53:30;6.57;;;1.75;;
42662;SDS011;44330;51.360;6.686;2023-08-07T11:58:50;11.65;;;1.98;;
42662;SDS011;44330;51.360;6.686;2023-08-07T12:01:19;8.90;;;2.08;;
42662;SDS011;44330;51.360;6.686;2023-08-07T12:04:10;9.25;;;1.80;;
42662;SDS011;44330;51.360;6.686;2023-08-07T12:06:36;15.35;;;2.08;;
42662;SDS011;44330;51.360;6.686;2023-08-07T12:09:04;5.68;;;1.63;;
42662;SDS011;44330;51.360;6.686;2023-08-07T12:11:37;10.38;;;2.13;;
42662;SDS011;44330;51.360;6.686;2023-08-07T12:14:03;6.55;;;1.67;;
42662;SDS011;44330;51.360;6.686;2023-08-07T12:16:33;7.85;;;1.77;;
42662;SDS011;44330;51.360;6.686;2023-08-07T12:18:59;8.50;;;1.77;;
42662;SDS011;44330;51.360;6.686;2023-08-07T12:21:26;13.60;;;2.03;;
42662;SDS011;44330;51.360;6.686;2023-08-07T12:23:55;8.93;;;1.83;;
42662;SDS011;44330;51.360;6.686;2023-08-07T12:26:21;6.45;;;1.35;;
42662;SDS011;44330;51.360;6.686;2023-08-07T12:28:47;7.32;;;1.60;;
42662;SDS011;44330;51.360;6.686;2023-08-07T12:31:12;5.18;;;1.80;;
42662;SDS011;44330;51.360;6.686;2023-08-07T12:33:38;12.05;;;1.80;;
42662;SDS011;44330;51.360;6.686;2023-08-07T12:36:04;6.40;;;1.77;;
42662;SDS011;44330;51.360;6.686;2023-08-07T12:38:30;5.85;;;1.70;;
42662;SDS011;44330;51.360;6.686;2023-08-07T12:40:56;10.23;;;1.73;;
42662;SDS011;44330;51.360;6.686;2023-08-07T12:43:22;7.05;;;1.70;;
42662;SDS011;44330;51.360;6.686;2023-08-07T12:45:48;8.18;;;2.10;;
42662;SDS011;44330;51.360;6.686;2023-08-07T12:48:13;6.95;;;1.65;;
42662;SDS011;44330;51.360;6.686;2023-08-07T12:50:39;6.90;;;1.30;;
42662;SDS011;44330;51.360;6.686;2023-08-07T12:53:06;5.07;;;1.80;;
42662;SDS011;44330;51.360;6.686;2023-08-07T12:55:33;4.82;;;1.85;;
42662;SDS011;44330;51.360;6.686;2023-08-07T13:00:27;11.80;;;1.77;;
42662;SDS011;44330;51.360;6.686;2023-08-07T13:02:53;9.02;;;1.60;;
42662;SDS011;44330;51.360;6.686;2023-08-07T13:05:20;13.77;;;2.58;;
42662;SDS011;44330;51.360;6.686;2023-08-07T13:07:47;6.32;;;1.90;;
42662;SDS011;44330;51.360;6.686;2023-08-07T13:10:16;4.20;;;1.30;;
42662;SDS011;44330;51.360;6.686;2023-08-07T13:12:43;10.48;;;2.45;;
42662;SDS011;44330;51.360;6.686;2023-08-07T13:15:11;5.68;;;1.77;;
42662;SDS011;44330;51.360;6.686;2023-08-07T13:17:38;5.65;;;1.58;;
42662;SDS011;44330;51.360;6.686;2023-08-07T13:20:06;5.35;;;1.90;;
42662;SDS011;44330;51.360;6.686;2023-08-07T13:22:36;5.13;;;1.35;;
42662;SDS011;44330;51.360;6.686;2023-08-07T13:25:02;4.05;;;2.00;;
42662;SDS011;44330;51.360;6.686;2023-08-07T13:27:29;8.55;;;2.13;;
42662;SDS011;44330;51.360;6.686;2023-08-07T13:29:55;3.63;;;1.52;;
42662;SDS011;44330;51.360;6.686;2023-08-07T13:32:21;7.22;;;1.40;;
42662;SDS011;44330;51.360;6.686;2023-08-07T13:34:47;6.53;;;1.52;;
42662;SDS011;44330;51.360;6.686;2023-08-07T13:37:13;3.08;;;1.30;;
42662;SDS011;44330;51.360;6.686;2023-08-07T13:39:40;3.97;;;1.30;;
42662;SDS011;44330;51.360;6.686;2023-08-07T13:42:05;7.32;;;1.50;;
42662;SDS011;44330;51.360;6.686;2023-08-07T13:44:32;6.85;;;1.70;;
42662;SDS011;44330;51.360;6.686;2023-08-07T13:46:58;6.82;;;2.00;;
42662;SDS011;44330;51.360;6.686;2023-08-07T13:49:24;5.45;;;1.88;;
42662;SDS011;44330;51.360;6.686;2023-08-07T13:51:51;7.30;;;1.63;;
42662;SDS011;44330;51.360;6.686;2023-08-07T13:54:17;7.55;;;1.80;;
42662;SDS011;44330;51.360;6.686;2023-08-07T13:56:43;6.65;;;1.75;;
42662;SDS011;44330;51.360;6.686;2023-08-07T13:59:09;4.78;;;1.60;;
42662;SDS011;44330;51.360;6.686;2023-08-07T14:01:35;3.20;;;1.35;;
42662;SDS011;44330;51.360;6.686;2023-08-07T14:04:01;4.22;;;1.77;;
42662;SDS011;44330;51.360;6.686;2023-08-07T14:06:27;2.08;;;1.45;;
42662;SDS011;44330;51.360;6.686;2023-08-07T14:08:53;4.00;;;1.60;;
42662;SDS011;44330;51.360;6.686;2023-08-07T14:11:21;7.15;;;1.55;;
42662;SDS011;44330;51.360;6.686;2023-08-07T14:13:49;4.57;;;1.70;;
42662;SDS011;44330;51.360;6.686;2023-08-07T14:16:15;3.28;;;1.58;;
42662;SDS011;44330;51.360;6.686;2023-08-07T14:18:41;3.88;;;1.23;;
42662;SDS011;44330;51.360;6.686;2023-08-07T14:21:10;4.25;;;1.30;;
42662;SDS011;44330;51.360;6.686;2023-08-07T14:23:43;3.95;;;1.42;;
42662;SDS011;44330;51.360;6.686;2023-08-07T14:26:10;4.10;;;1.50;;
42662;SDS011;44330;51.360;6.686;2023-08-07T14:28:36;6.32;;;1.70;;
42662;SDS011;44330;51.360;6.686;2023-08-07T14:31:06;5.22;;;1.42;;
42662;SDS011;44330;51.360;6.686;2023-08-07T14:33:34;5.60;;;1.80;;
42662;SDS011;44330;51.360;6.686;2023-08-07T14:36:00;3.78;;;1.67;;
42662;SDS011;44330;51.360;6.686;2023-08-07T14:38:29;3.08;;;1.20;;
42662;SDS011;44330;51.360;6.686;2023-08-07T14:40:55;5.63;;;1.50;;
42662;SDS011;44330;51.360;6.686;2023-08-07T14:43:21;5.43;;;1.75;;
42662;SDS011;44330;51.360;6.686;2023-08-07T14:45:47;7.88;;;1.95;;
42662;SDS011;44330;51.360;6.686;2023-08-07T14:48:13;4.57;;;1.80;;
42662;SDS011;44330;51.360;6.686;2023-08-07T14:50:42;5.13;;;1.58;;
42662;SDS011;44330;51.360;6.686;2023-08-07T14:53:08;3.42;;;1.60;;
42662;SDS011;44330;51.360;6.686;2023-08-07T14:55:36;3.83;;;1.52;;
42662;SDS011;44330;51.360;6.686;2023-08-07T14:58:08;6.88;;;1.73;;
42662;SDS011;44330;51.360;6.686;2023-08-07T15:00:34;3.55;;;1.67;;